sensor_id;sensor_type;location;lat;lon;timestamp;temperature;humidity
60033;DHT22;45905;50.570;10.428;2023-06-22T00:06:21;20.90;92.10
60033;DHT22;45905;50.570;10.428;2023-06-22T00:08:49;21.00;91.80
60033;DHT22;45905;50.570;10.428;2023-06-22T00:13:44;20.50;91.10
60033;DHT22;45905;50.570;10.428;2023-06-22T00:16:11;20.00;91.50
60033;DHT22;45905;50.570;10.428;2023-06-22T00:21:06;20.40;92.70
60033;DHT22;45905;50.570;10.428;2023-06-22T00:35:53;19.70;93.70
60033;DHT22;45905;50.570;10.428;2023-06-22T00:38:20;20.00;95.50
60033;DHT22;45905;50.570;10.428;2023-06-22T00:48:12;20.00;94.60
60033;DHT22;45905;50.570;10.428;2023-06-22T00:53:09;20.00;94.20
60033;DHT22;45905;50.570;10.428;2023-06-22T00:55:42;20.00;93.60
60033;DHT22;45905;50.570;10.428;2023-06-22T00:58:19;19.90;93.40
60033;DHT22;45905;50.570;10.428;2023-06-22T01:00:48;19.90;93.40
60033;DHT22;45905;50.570;10.428;2023-06-22T01:05:44;19.60;93.30
60033;DHT22;45905;50.570;10.428;2023-06-22T01:11:08;19.50;94.60
60033;DHT22;45905;50.570;10.428;2023-06-22T01:13:50;19.80;95.40
60033;DHT22;45905;50.570;10.428;2023-06-22T01:16:41;19.60;95.00
60033;DHT22;45905;50.570;10.428;2023-06-22T01:22:03;19.80;95.00
60033;DHT22;45905;50.570;10.428;2023-06-22T01:30:32;19.40;96.10
60033;DHT22;45905;50.570;10.428;2023-06-22T01:33:04;19.20;96.20
60033;DHT22;45905;50.570;10.428;2023-06-22T01:35:32;19.00;95.70
60033;DHT22;45905;50.570;10.428;2023-06-22T01:38:00;19.20;95.60
60033;DHT22;45905;50.570;10.428;2023-06-22T01:40:30;19.30;96.20
60033;DHT22;45905;50.570;10.428;2023-06-22T01:43:01;18.70;96.00
60033;DHT22;45905;50.570;10.428;2023-06-22T01:45:30;19.20;97.40
60033;DHT22;45905;50.570;10.428;2023-06-22T01:47:57;19.30;97.70
60033;DHT22;45905;50.570;10.428;2023-06-22T01:50:25;19.00;97.50
60033;DHT22;45905;50.570;10.428;2023-06-22T01:52:55;19.10;97.40
60033;DHT22;45905;50.570;10.428;2023-06-22T01:55:22;18.70;96.90
60033;DHT22;45905;50.570;10.428;2023-06-22T01:57:49;19.30;97.00
60033;DHT22;45905;50.570;10.428;2023-06-22T02:00:21;19.20;96.80
60033;DHT22;45905;50.570;10.428;2023-06-22T02:03:14;19.00;96.60
60033;DHT22;45905;50.570;10.428;2023-06-22T02:05:56;19.00;97.30
60033;DHT22;45905;50.570;10.428;2023-06-22T02:08:38;19.00;97.30
60033;DHT22;45905;50.570;10.428;2023-06-22T02:11:10;18.90;97.70
60033;DHT22;45905;50.570;10.428;2023-06-22T02:13:40;19.30;97.70
60033;DHT22;45905;50.570;10.428;2023-06-22T02:16:14;18.80;97.10
60033;DHT22;45905;50.570;10.428;2023-06-22T02:18:47;19.10;97.10
60033;DHT22;45905;50.570;10.428;2023-06-22T02:21:19;19.00;96.90
60033;DHT22;45905;50.570;10.428;2023-06-22T02:23:47;19.20;97.10
60033;DHT22;45905;50.570;10.428;2023-06-22T02:26:17;19.40;96.90
60033;DHT22;45905;50.570;10.428;2023-06-22T02:28:44;19.30;97.10
60033;DHT22;45905;50.570;10.428;2023-06-22T02:31:12;18.00;96.70
60033;DHT22;45905;50.570;10.428;2023-06-22T02:33:40;19.10;97.90
60033;DHT22;45905;50.570;10.428;2023-06-22T02:36:07;19.20;98.20
60033;DHT22;45905;50.570;10.428;2023-06-22T02:38:36;18.40;98.20
60033;DHT22;45905;50.570;10.428;2023-06-22T02:41:03;18.70;98.50
60033;DHT22;45905;50.570;10.428;2023-06-22T02:43:30;19.10;98.40
60033;DHT22;45905;50.570;10.428;2023-06-22T02:45:57;19.20;98.30
60033;DHT22;45905;50.570;10.428;2023-06-22T02:48:25;19.40;98.50
60033;DHT22;45905;50.570;10.428;2023-06-22T02:50:52;19.40;98.60
60033;DHT22;45905;50.570;10.428;2023-06-22T02:53:19;19.20;98.20
60033;DHT22;45905;50.570;10.428;2023-06-22T02:55:47;19.20;98.10
60033;DHT22;45905;50.570;10.428;2023-06-22T02:58:15;19.10;98.30
60033;DHT22;45905;50.570;10.428;2023-06-22T03:00:43;19.20;98.40
60033;DHT22;45905;50.570;10.428;2023-06-22T03:03:10;19.10;98.90
60033;DHT22;45905;50.570;10.428;2023-06-22T03:05:38;19.70;99.80
60033;DHT22;45905;50.570;10.428;2023-06-22T03:08:07;19.40;99.40
60033;DHT22;45905;50.570;10.428;2023-06-22T03:10:34;19.30;99.50
60033;DHT22;45905;50.570;10.428;2023-06-22T03:13:02;19.20;99.80
60033;DHT22;45905;50.570;10.428;2023-06-22T03:15:30;18.90;99.90
60033;DHT22;45905;50.570;10.428;2023-06-22T03:17:58;19.20;99.90
60033;DHT22;45905;50.570;10.428;2023-06-22T03:20:25;19.10;99.90
60033;DHT22;45905;50.570;10.428;2023-06-22T03:22:54;18.80;99.90
60033;DHT22;45905;50.570;10.428;2023-06-22T03:25:22;19.40;99.90
60033;DHT22;45905;50.570;10.428;2023-06-22T03:27:49;19.30;99.90
60033;DHT22;45905;50.570;10.428;2023-06-22T03:30:17;19.40;99.90
60033;DHT22;45905;50.570;10.428;2023-06-22T03:32:45;19.20;99.90
60033;DHT22;45905;50.570;10.428;2023-06-22T03:35:14;19.20;99.90
60033;DHT22;45905;50.570;10.428;2023-06-22T03:37:41;19.00;99.90
60033;DHT22;45905;50.570;10.428;2023-06-22T03:40:09;19.50;99.90
60033;DHT22;45905;50.570;10.428;2023-06-22T03:42:36;19.40;99.90
60033;DHT22;45905;50.570;10.428;2023-06-22T03:45:04;19.10;99.90
60033;DHT22;45905;50.570;10.428;2023-06-22T03:47:32;19.20;99.90
60033;DHT22;45905;50.570;10.428;2023-06-22T03:50:03;19.10;99.90
60033;DHT22;45905;50.570;10.428;2023-06-22T03:57:26;19.30;99.90
60033;DHT22;45905;50.570;10.428;2023-06-22T03:59:56;19.20;99.90
60033;DHT22;45905;50.570;10.428;2023-06-22T04:02:24;19.50;99.90
60033;DHT22;45905;50.570;10.428;2023-06-22T04:04:52;19.40;99.90
60033;DHT22;45905;50.570;10.428;2023-06-22T04:07:20;19.10;99.90
60033;DHT22;45905;50.570;10.428;2023-06-22T04:12:14;19.10;99.90
60033;DHT22;45905;50.570;10.428;2023-06-22T04:14:42;19.40;99.90
60033;DHT22;45905;50.570;10.428;2023-06-22T04:17:09;18.90;99.90
60033;DHT22;45905;50.570;10.428;2023-06-22T04:22:03;18.70;99.90
60033;DHT22;45905;50.570;10.428;2023-06-22T04:29:29;19.20;99.90
60033;DHT22;45905;50.570;10.428;2023-06-22T04:31:57;19.30;99.90
60033;DHT22;45905;50.570;10.428;2023-06-22T04:34:25;19.30;99.90
60033;DHT22;45905;50.570;10.428;2023-06-22T04:36:55;19.30;99.90
60033;DHT22;45905;50.570;10.428;2023-06-22T04:39:22;19.30;99.90
60033;DHT22;45905;50.570;10.428;2023-06-22T04:41:50;19.10;99.90
60033;DHT22;45905;50.570;10.428;2023-06-22T04:44:18;19.50;99.90
60033;DHT22;45905;50.570;10.428;2023-06-22T04:46:56;19.60;99.90
60033;DHT22;45905;50.570;10.428;2023-06-22T04:49:29;19.70;99.90
60033;DHT22;45905;50.570;10.428;2023-06-22T04:52:03;19.50;99.90
60033;DHT22;45905;50.570;10.428;2023-06-22T04:54:35;19.50;99.90
60033;DHT22;45905;50.570;10.428;2023-06-22T04:57:06;20.00;99.90
60033;DHT22;45905;50.570;10.428;2023-06-22T04:59:38;19.60;99.90
60033;DHT22;45905;50.570;10.428;2023-06-22T05:02:09;19.70;99.90
60033;DHT22;45905;50.570;10.428;2023-06-22T05:04:36;19.90;99.90
60033;DHT22;45905;50.570;10.428;2023-06-22T05:07:06;19.70;99.90
60033;DHT22;45905;50.570;10.428;2023-06-22T05:12:02;19.50;99.90
60033;DHT22;45905;50.570;10.428;2023-06-22T05:14:33;19.80;99.90
60033;DHT22;45905;50.570;10.428;2023-06-22T05:17:00;19.60;99.90
60033;DHT22;45905;50.570;10.428;2023-06-22T05:19:30;19.70;99.90
60033;DHT22;45905;50.570;10.428;2023-06-22T05:22:01;19.90;99.90
60033;DHT22;45905;50.570;10.428;2023-06-22T05:24:28;19.80;99.90
60033;DHT22;45905;50.570;10.428;2023-06-22T05:26:55;20.00;99.90
60033;DHT22;45905;50.570;10.428;2023-06-22T05:34:18;20.10;99.90
60033;DHT22;45905;50.570;10.428;2023-06-22T05:36:45;20.10;99.90
60033;DHT22;45905;50.570;10.428;2023-06-22T05:39:13;20.20;99.90
60033;DHT22;45905;50.570;10.428;2023-06-22T05:41:42;20.20;99.90
60033;DHT22;45905;50.570;10.428;2023-06-22T05:44:12;20.70;99.90
60033;DHT22;45905;50.570;10.428;2023-06-22T05:46:41;20.10;99.90
60033;DHT22;45905;50.570;10.428;2023-06-22T05:49:14;20.10;99.90
60033;DHT22;45905;50.570;10.428;2023-06-22T05:51:42;20.70;99.90
60033;DHT22;45905;50.570;10.428;2023-06-22T05:54:09;20.50;99.90
60033;DHT22;45905;50.570;10.428;2023-06-22T05:56:37;20.50;99.90
60033;DHT22;45905;50.570;10.428;2023-06-22T05:59:04;20.60;99.90
60033;DHT22;45905;50.570;10.428;2023-06-22T06:04:03;20.70;99.90
60033;DHT22;45905;50.570;10.428;2023-06-22T06:06:31;21.20;99.90
60033;DHT22;45905;50.570;10.428;2023-06-22T06:08:58;20.70;99.90
60033;DHT22;45905;50.570;10.428;2023-06-22T06:11:26;21.00;99.90
60033;DHT22;45905;50.570;10.428;2023-06-22T06:13:54;20.90;99.90
60033;DHT22;45905;50.570;10.428;2023-06-22T06:16:22;21.20;99.90
60033;DHT22;45905;50.570;10.428;2023-06-22T06:18:49;21.10;99.90
60033;DHT22;45905;50.570;10.428;2023-06-22T06:21:17;21.10;99.90
60033;DHT22;45905;50.570;10.428;2023-06-22T06:23:44;21.10;99.90
60033;DHT22;45905;50.570;10.428;2023-06-22T06:26:11;21.20;99.90
60033;DHT22;45905;50.570;10.428;2023-06-22T06:28:39;21.20;99.90
60033;DHT22;45905;50.570;10.428;2023-06-22T06:31:06;20.90;99.90
60033;DHT22;45905;50.570;10.428;2023-06-22T06:33:34;21.30;99.90
60033;DHT22;45905;50.570;10.428;2023-06-22T06:36:02;21.40;99.90
60033;DHT22;45905;50.570;10.428;2023-06-22T06:38:33;21.40;99.90
60033;DHT22;45905;50.570;10.428;2023-06-22T06:41:00;21.40;99.90
60033;DHT22;45905;50.570;10.428;2023-06-22T06:43:28;21.60;99.90
60033;DHT22;45905;50.570;10.428;2023-06-22T06:45:55;21.50;99.90
60033;DHT22;45905;50.570;10.428;2023-06-22T06:48:22;21.60;99.90
60033;DHT22;45905;50.570;10.428;2023-06-22T06:50:49;21.50;99.90
60033;DHT22;45905;50.570;10.428;2023-06-22T06:53:17;21.60;99.90
60033;DHT22;45905;50.570;10.428;2023-06-22T06:55:44;21.70;99.90
60033;DHT22;45905;50.570;10.428;2023-06-22T06:58:12;21.60;99.90
60033;DHT22;45905;50.570;10.428;2023-06-22T07:00:40;21.70;99.90
60033;DHT22;45905;50.570;10.428;2023-06-22T07:03:08;21.80;99.90
60033;DHT22;45905;50.570;10.428;2023-06-22T07:05:35;21.90;99.90
60033;DHT22;45905;50.570;10.428;2023-06-22T07:08:03;21.90;99.90
60033;DHT22;45905;50.570;10.428;2023-06-22T07:10:30;22.00;99.90
60033;DHT22;45905;50.570;10.428;2023-06-22T07:12:58;22.60;99.90
60033;DHT22;45905;50.570;10.428;2023-06-22T07:15:25;22.00;99.80
60033;DHT22;45905;50.570;10.428;2023-06-22T07:17:52;22.00;99.70
60033;DHT22;45905;50.570;10.428;2023-06-22T07:20:19;22.20;99.90
60033;DHT22;45905;50.570;10.428;2023-06-22T07:22:47;22.10;99.90
60033;DHT22;45905;50.570;10.428;2023-06-22T07:25:14;22.20;99.90
60033;DHT22;45905;50.570;10.428;2023-06-22T07:27:56;22.40;99.90
60033;DHT22;45905;50.570;10.428;2023-06-22T07:30:25;22.30;99.90
60033;DHT22;45905;50.570;10.428;2023-06-22T07:32:53;22.30;99.80
60033;DHT22;45905;50.570;10.428;2023-06-22T07:35:20;22.60;99.90
60033;DHT22;45905;50.570;10.428;2023-06-22T07:37:48;22.60;99.60
60033;DHT22;45905;50.570;10.428;2023-06-22T07:40:15;22.70;99.50
60033;DHT22;45905;50.570;10.428;2023-06-22T07:42:42;22.70;99.30
60033;DHT22;45905;50.570;10.428;2023-06-22T07:45:10;22.80;99.50
60033;DHT22;45905;50.570;10.428;2023-06-22T07:47:37;22.90;99.20
60033;DHT22;45905;50.570;10.428;2023-06-22T07:50:05;23.00;99.00
60033;DHT22;45905;50.570;10.428;2023-06-22T07:52:32;23.10;98.70
60033;DHT22;45905;50.570;10.428;2023-06-22T07:55:00;23.00;98.50
60033;DHT22;45905;50.570;10.428;2023-06-22T07:57:27;23.20;98.80
60033;DHT22;45905;50.570;10.428;2023-06-22T08:00:00;23.30;97.60
60033;DHT22;45905;50.570;10.428;2023-06-22T08:02:38;23.40;97.50
60033;DHT22;45905;50.570;10.428;2023-06-22T08:05:08;23.50;97.70
60033;DHT22;45905;50.570;10.428;2023-06-22T08:07:56;23.60;97.50
60033;DHT22;45905;50.570;10.428;2023-06-22T08:10:23;23.70;97.50
60033;DHT22;45905;50.570;10.428;2023-06-22T08:12:52;23.80;96.70
60033;DHT22;45905;50.570;10.428;2023-06-22T08:15:19;24.30;96.50
60033;DHT22;45905;50.570;10.428;2023-06-22T08:17:47;24.00;96.00
60033;DHT22;45905;50.570;10.428;2023-06-22T08:22:43;24.30;95.80
60033;DHT22;45905;50.570;10.428;2023-06-22T08:25:11;24.70;94.70
60033;DHT22;45905;50.570;10.428;2023-06-22T08:35:06;24.60;95.50
60033;DHT22;45905;50.570;10.428;2023-06-22T08:40:08;24.80;94.30
60033;DHT22;45905;50.570;10.428;2023-06-22T08:57:27;25.30;92.80
60033;DHT22;45905;50.570;10.428;2023-06-22T08:59:56;25.30;99.90
60033;DHT22;45905;50.570;10.428;2023-06-22T09:02:27;25.50;92.70
60033;DHT22;45905;50.570;10.428;2023-06-22T09:09:55;25.70;91.30
60033;DHT22;45905;50.570;10.428;2023-06-22T09:41:59;26.90;87.30
60033;DHT22;45905;50.570;10.428;2023-06-22T10:16:48;28.00;81.40
60033;DHT22;45905;50.570;10.428;2023-06-22T11:01:17;29.60;79.60
60033;DHT22;45905;50.570;10.428;2023-06-22T11:43:44;30.60;64.80
60033;DHT22;45905;50.570;10.428;2023-06-22T12:10:49;31.80;60.30
60033;DHT22;45905;50.570;10.428;2023-06-22T12:30:35;32.70;59.00
60033;DHT22;45905;50.570;10.428;2023-06-22T13:22:34;34.00;56.90
60033;DHT22;45905;50.570;10.428;2023-06-22T13:27:40;34.20;55.90
60033;DHT22;45905;50.570;10.428;2023-06-22T13:30:09;34.50;57.30
60033;DHT22;45905;50.570;10.428;2023-06-22T13:40:06;34.30;53.30
60033;DHT22;45905;50.570;10.428;2023-06-22T14:29:25;34.30;52.00
60033;DHT22;45905;50.570;10.428;2023-06-22T15:26:03;33.70;53.20
60033;DHT22;45905;50.570;10.428;2023-06-22T15:35:59;33.80;76.60
60033;DHT22;45905;50.570;10.428;2023-06-22T16:08:10;32.80;57.80
60033;DHT22;45905;50.570;10.428;2023-06-22T16:32:54;33.50;57.00
60033;DHT22;45905;50.570;10.428;2023-06-22T16:37:56;33.50;58.90
60033;DHT22;45905;50.570;10.428;2023-06-22T16:42:51;32.80;57.20
60033;DHT22;45905;50.570;10.428;2023-06-22T16:45:20;33.30;57.40
60033;DHT22;45905;50.570;10.428;2023-06-22T16:47:50;33.20;57.70
60033;DHT22;45905;50.570;10.428;2023-06-22T17:00:10;32.90;58.10
60033;DHT22;45905;50.570;10.428;2023-06-22T17:02:45;32.90;58.40
60033;DHT22;45905;50.570;10.428;2023-06-22T17:07:52;32.70;58.70
60033;DHT22;45905;50.570;10.428;2023-06-22T17:15:37;32.50;59.20
60033;DHT22;45905;50.570;10.428;2023-06-22T17:25:33;32.10;59.20
60033;DHT22;45905;50.570;10.428;2023-06-22T17:28:02;32.00;59.70
60033;DHT22;45905;50.570;10.428;2023-06-22T17:37:57;31.70;61.60
60033;DHT22;45905;50.570;10.428;2023-06-22T17:43:04;31.50;61.90
60033;DHT22;45905;50.570;10.428;2023-06-22T17:45:42;31.40;62.20
60033;DHT22;45905;50.570;10.428;2023-06-22T17:50:48;31.20;62.70
60033;DHT22;45905;50.570;10.428;2023-06-22T18:03:12;30.70;63.10
60033;DHT22;45905;50.570;10.428;2023-06-22T18:05:45;30.70;63.10
60033;DHT22;45905;50.570;10.428;2023-06-22T18:08:14;30.60;62.90
60033;DHT22;45905;50.570;10.428;2023-06-22T18:10:46;30.60;63.20
60033;DHT22;45905;50.570;10.428;2023-06-22T18:23:10;30.20;64.60
60033;DHT22;45905;50.570;10.428;2023-06-22T18:28:09;30.00;64.80
60033;DHT22;45905;50.570;10.428;2023-06-22T18:30:37;30.10;66.50
60033;DHT22;45905;50.570;10.428;2023-06-22T18:38:01;29.70;65.60
60033;DHT22;45905;50.570;10.428;2023-06-22T18:43:00;29.60;66.50
60033;DHT22;45905;50.570;10.428;2023-06-22T18:45:28;29.40;65.90
60033;DHT22;45905;50.570;10.428;2023-06-22T18:48:01;29.40;73.10
60033;DHT22;45905;50.570;10.428;2023-06-22T18:50:41;28.70;63.20
60033;DHT22;45905;50.570;10.428;2023-06-22T18:53:27;28.80;77.20
60033;DHT22;45905;50.570;10.428;2023-06-22T18:56:13;28.00;76.10
60033;DHT22;45905;50.570;10.428;2023-06-22T19:01:21;27.50;65.20
60033;DHT22;45905;50.570;10.428;2023-06-22T19:03:56;27.30;65.80
60033;DHT22;45905;50.570;10.428;2023-06-22T19:11:47;27.20;67.70
60033;DHT22;45905;50.570;10.428;2023-06-22T19:14:19;26.90;66.80
60033;DHT22;45905;50.570;10.428;2023-06-22T19:16:58;27.20;67.60
60033;DHT22;45905;50.570;10.428;2023-06-22T19:22:00;26.80;67.30
60033;DHT22;45905;50.570;10.428;2023-06-22T19:24:41;26.80;67.80
60033;DHT22;45905;50.570;10.428;2023-06-22T19:37:16;26.40;69.40
60033;DHT22;45905;50.570;10.428;2023-06-22T19:39:43;26.20;69.40
60033;DHT22;45905;50.570;10.428;2023-06-22T19:42:13;26.40;70.50
60033;DHT22;45905;50.570;10.428;2023-06-22T19:52:07;26.00;70.40
60033;DHT22;45905;50.570;10.428;2023-06-22T19:57:05;25.60;71.40
60033;DHT22;45905;50.570;10.428;2023-06-22T20:04:30;25.80;71.10
60033;DHT22;45905;50.570;10.428;2023-06-22T20:07:05;25.80;71.30
60033;DHT22;45905;50.570;10.428;2023-06-22T20:12:09;25.60;71.50
60033;DHT22;45905;50.570;10.428;2023-06-22T20:17:17;25.50;72.40
60033;DHT22;45905;50.570;10.428;2023-06-22T20:19:44;25.80;76.50
60033;DHT22;45905;50.570;10.428;2023-06-22T20:27:11;25.40;73.30
60033;DHT22;45905;50.570;10.428;2023-06-22T20:32:14;25.30;73.00
60033;DHT22;45905;50.570;10.428;2023-06-22T20:34:45;25.50;73.40
60033;DHT22;45905;50.570;10.428;2023-06-22T20:37:17;25.20;76.50
60033;DHT22;45905;50.570;10.428;2023-06-22T20:47:19;24.70;74.10
60033;DHT22;45905;50.570;10.428;2023-06-22T20:52:17;25.20;74.70
60033;DHT22;45905;50.570;10.428;2023-06-22T20:54:45;25.20;78.20
60033;DHT22;45905;50.570;10.428;2023-06-22T21:19:39;24.70;80.50
60033;DHT22;45905;50.570;10.428;2023-06-22T21:29:29;25.00;79.00
60033;DHT22;45905;50.570;10.428;2023-06-22T21:31:56;25.00;80.10
60033;DHT22;45905;50.570;10.428;2023-06-22T21:34:25;24.60;79.60
60033;DHT22;45905;50.570;10.428;2023-06-22T21:36:54;24.60;81.20
60033;DHT22;45905;50.570;10.428;2023-06-22T21:46:44;24.60;85.20
60033;DHT22;45905;50.570;10.428;2023-06-22T21:51:39;24.10;85.70
60033;DHT22;45905;50.570;10.428;2023-06-22T22:01:29;23.80;86.60
60033;DHT22;45905;50.570;10.428;2023-06-22T22:03:56;23.30;86.00
60033;DHT22;45905;50.570;10.428;2023-06-22T22:11:22;23.70;87.40
60033;DHT22;45905;50.570;10.428;2023-06-22T22:13:50;23.70;88.20
60033;DHT22;45905;50.570;10.428;2023-06-22T22:18:45;24.30;90.20
60033;DHT22;45905;50.570;10.428;2023-06-22T22:28:37;24.10;91.90
60033;DHT22;45905;50.570;10.428;2023-06-22T22:33:32;23.70;91.80
60033;DHT22;45905;50.570;10.428;2023-06-22T22:36:02;23.10;91.30
60033;DHT22;45905;50.570;10.428;2023-06-22T22:38:32;23.60;91.70
60033;DHT22;45905;50.570;10.428;2023-06-22T22:41:03;23.40;91.20
60033;DHT22;45905;50.570;10.428;2023-06-22T22:43:30;23.50;92.60
60033;DHT22;45905;50.570;10.428;2023-06-22T22:48:24;23.20;91.10
60033;DHT22;45905;50.570;10.428;2023-06-22T22:58:14;23.50;92.60
60033;DHT22;45905;50.570;10.428;2023-06-22T23:00:42;22.70;94.50
60033;DHT22;45905;50.570;10.428;2023-06-22T23:05:37;23.30;95.30
60033;DHT22;45905;50.570;10.428;2023-06-22T23:22:54;22.30;95.50
60033;DHT22;45905;50.570;10.428;2023-06-22T23:25:25;22.50;96.00
60033;DHT22;45905;50.570;10.428;2023-06-22T23:27:53;23.40;98.80
60033;DHT22;45905;50.570;10.428;2023-06-22T23:30:20;23.10;97.40
60033;DHT22;45905;50.570;10.428;2023-06-22T23:42:47;22.60;97.30
60033;DHT22;45905;50.570;10.428;2023-06-22T23:45:19;22.50;97.40
60033;DHT22;45905;50.570;10.428;2023-06-22T23:47:48;22.50;97.60
60033;DHT22;45905;50.570;10.428;2023-06-22T23:50:16;20.00;96.20
60033;DHT22;45905;50.570;10.428;2023-06-22T23:52:45;22.40;97.00
60033;DHT22;45905;50.570;10.428;2023-06-22T23:55:20;22.50;97.10
